sensor_id;sensor_type;location;lat;lon;timestamp;P1;durP1;ratioP1;P2;durP2;ratioP2
7193;SDS011;3638;48.820;9.244;2023-06-22T00:01:17;11.90;;;9.20;;
7193;SDS011;3638;48.820;9.244;2023-06-22T00:07:26;13.52;;;9.50;;
7193;SDS011;3638;48.820;9.244;2023-06-22T00:09:53;12.02;;;9.40;;
7193;SDS011;3638;48.820;9.244;2023-06-22T00:12:20;10.65;;;8.93;;
7193;SDS011;3638;48.820;9.244;2023-06-22T00:14:47;12.63;;;9.00;;
7193;SDS011;3638;48.820;9.244;2023-06-22T00:17:14;11.27;;;9.02;;
7193;SDS011;3638;48.820;9.244;2023-06-22T00:19:41;10.95;;;8.68;;
7193;SDS011;3638;48.820;9.244;2023-06-22T00:22:07;10.63;;;9.13;;
7193;SDS011;3638;48.820;9.244;2023-06-22T00:24:36;10.23;;;8.63;;
7193;SDS011;3638;48.820;9.244;2023-06-22T00:27:03;10.02;;;8.60;;
7193;SDS011;3638;48.820;9.244;2023-06-22T00:29:30;11.07;;;8.43;;
7193;SDS011;3638;48.820;9.244;2023-06-22T00:31:57;10.15;;;8.57;;
7193;SDS011;3638;48.820;9.244;2023-06-22T00:34:24;10.63;;;8.48;;
7193;SDS011;3638;48.820;9.244;2023-06-22T00:36:51;11.13;;;8.90;;
7193;SDS011;3638;48.820;9.244;2023-06-22T00:39:18;11.15;;;9.18;;
7193;SDS011;3638;48.820;9.244;2023-06-22T00:41:46;11.15;;;9.43;;
7193;SDS011;3638;48.820;9.244;2023-06-22T00:44:13;10.98;;;9.45;;
7193;SDS011;3638;48.820;9.244;2023-06-22T00:46:40;9.60;;;8.57;;
7193;SDS011;3638;48.820;9.244;2023-06-22T00:49:07;11.15;;;8.93;;
7193;SDS011;3638;48.820;9.244;2023-06-22T00:51:33;11.05;;;8.95;;
7193;SDS011;3638;48.820;9.244;2023-06-22T00:54:03;12.35;;;9.27;;
7193;SDS011;3638;48.820;9.244;2023-06-22T00:56:31;11.10;;;9.18;;
7193;SDS011;3638;48.820;9.244;2023-06-22T00:59:03;10.65;;;9.35;;
7193;SDS011;3638;48.820;9.244;2023-06-22T01:01:30;10.20;;;9.13;;
7193;SDS011;3638;48.820;9.244;2023-06-22T01:03:59;10.27;;;9.20;;
7193;SDS011;3638;48.820;9.244;2023-06-22T01:06:26;10.30;;;8.70;;
7193;SDS011;3638;48.820;9.244;2023-06-22T01:09:05;13.35;;;10.20;;
7193;SDS011;3638;48.820;9.244;2023-06-22T01:11:41;9.93;;;8.85;;
7193;SDS011;3638;48.820;9.244;2023-06-22T01:14:15;11.90;;;8.95;;
7193;SDS011;3638;48.820;9.244;2023-06-22T01:16:47;11.43;;;10.05;;
7193;SDS011;3638;48.820;9.244;2023-06-22T01:19:20;12.27;;;8.82;;
7193;SDS011;3638;48.820;9.244;2023-06-22T01:22:01;11.70;;;8.63;;
7193;SDS011;3638;48.820;9.244;2023-06-22T01:24:32;9.82;;;8.60;;
7193;SDS011;3638;48.820;9.244;2023-06-22T01:27:12;11.27;;;9.55;;
7193;SDS011;3638;48.820;9.244;2023-06-22T01:29:56;40.00;;;26.77;;
7193;SDS011;3638;48.820;9.244;2023-06-22T01:32:27;13.15;;;10.00;;
7193;SDS011;3638;48.820;9.244;2023-06-22T01:34:57;13.65;;;9.98;;
7193;SDS011;3638;48.820;9.244;2023-06-22T01:37:26;10.43;;;9.20;;
7193;SDS011;3638;48.820;9.244;2023-06-22T01:39:57;13.95;;;10.80;;
7193;SDS011;3638;48.820;9.244;2023-06-22T01:42:25;12.23;;;10.23;;
7193;SDS011;3638;48.820;9.244;2023-06-22T01:44:52;11.65;;;10.27;;
7193;SDS011;3638;48.820;9.244;2023-06-22T01:47:21;11.30;;;9.30;;
7193;SDS011;3638;48.820;9.244;2023-06-22T01:49:48;12.60;;;10.10;;
7193;SDS011;3638;48.820;9.244;2023-06-22T01:52:17;12.20;;;10.85;;
7193;SDS011;3638;48.820;9.244;2023-06-22T01:54:46;13.30;;;10.43;;
7193;SDS011;3638;48.820;9.244;2023-06-22T01:57:13;16.73;;;10.32;;
7193;SDS011;3638;48.820;9.244;2023-06-22T01:59:42;15.13;;;10.40;;
7193;SDS011;3638;48.820;9.244;2023-06-22T02:02:19;13.00;;;11.25;;
7193;SDS011;3638;48.820;9.244;2023-06-22T02:04:54;14.18;;;10.38;;
7193;SDS011;3638;48.820;9.244;2023-06-22T02:07:28;12.02;;;10.10;;
7193;SDS011;3638;48.820;9.244;2023-06-22T02:10:00;10.77;;;9.60;;
7193;SDS011;3638;48.820;9.244;2023-06-22T02:12:30;11.23;;;9.73;;
7193;SDS011;3638;48.820;9.244;2023-06-22T02:14:59;13.73;;;9.85;;
7193;SDS011;3638;48.820;9.244;2023-06-22T02:17:27;14.45;;;9.75;;
7193;SDS011;3638;48.820;9.244;2023-06-22T02:19:58;11.25;;;9.82;;
7193;SDS011;3638;48.820;9.244;2023-06-22T02:22:25;12.80;;;10.10;;
7193;SDS011;3638;48.820;9.244;2023-06-22T02:24:52;14.15;;;10.18;;
7193;SDS011;3638;48.820;9.244;2023-06-22T02:27:19;12.32;;;9.40;;
7193;SDS011;3638;48.820;9.244;2023-06-22T02:29:45;10.20;;;9.15;;
7193;SDS011;3638;48.820;9.244;2023-06-22T02:32:12;13.30;;;9.98;;
7193;SDS011;3638;48.820;9.244;2023-06-22T02:34:43;11.55;;;9.88;;
7193;SDS011;3638;48.820;9.244;2023-06-22T02:37:12;10.60;;;9.45;;
7193;SDS011;3638;48.820;9.244;2023-06-22T02:39:40;11.68;;;9.75;;
7193;SDS011;3638;48.820;9.244;2023-06-22T02:42:07;14.15;;;10.80;;
7193;SDS011;3638;48.820;9.244;2023-06-22T02:44:35;11.70;;;10.30;;
7193;SDS011;3638;48.820;9.244;2023-06-22T02:47:02;13.82;;;10.98;;
7193;SDS011;3638;48.820;9.244;2023-06-22T02:49:30;11.95;;;10.02;;
7193;SDS011;3638;48.820;9.244;2023-06-22T02:51:58;15.73;;;11.32;;
7193;SDS011;3638;48.820;9.244;2023-06-22T02:54:25;13.68;;;10.30;;
7193;SDS011;3638;48.820;9.244;2023-06-22T02:56:52;12.48;;;10.25;;
7193;SDS011;3638;48.820;9.244;2023-06-22T02:59:19;13.95;;;11.38;;
7193;SDS011;3638;48.820;9.244;2023-06-22T03:01:48;12.38;;;11.02;;
7193;SDS011;3638;48.820;9.244;2023-06-22T03:04:15;19.00;;;12.07;;
7193;SDS011;3638;48.820;9.244;2023-06-22T03:06:42;12.25;;;10.98;;
7193;SDS011;3638;48.820;9.244;2023-06-22T03:09:10;15.90;;;11.88;;
7193;SDS011;3638;48.820;9.244;2023-06-22T03:11:37;13.35;;;10.15;;
7193;SDS011;3638;48.820;9.244;2023-06-22T03:14:04;12.80;;;11.23;;
7193;SDS011;3638;48.820;9.244;2023-06-22T03:16:31;15.82;;;11.52;;
7193;SDS011;3638;48.820;9.244;2023-06-22T03:18:58;15.32;;;11.52;;
7193;SDS011;3638;48.820;9.244;2023-06-22T03:21:27;14.65;;;11.57;;
7193;SDS011;3638;48.820;9.244;2023-06-22T03:23:55;14.25;;;11.20;;
7193;SDS011;3638;48.820;9.244;2023-06-22T03:26:23;12.45;;;10.63;;
7193;SDS011;3638;48.820;9.244;2023-06-22T03:28:51;16.10;;;10.45;;
7193;SDS011;3638;48.820;9.244;2023-06-22T03:31:18;16.77;;;10.50;;
7193;SDS011;3638;48.820;9.244;2023-06-22T03:33:46;12.25;;;9.73;;
7193;SDS011;3638;48.820;9.244;2023-06-22T03:36:13;13.82;;;10.60;;
7193;SDS011;3638;48.820;9.244;2023-06-22T03:38:41;12.20;;;10.48;;
7193;SDS011;3638;48.820;9.244;2023-06-22T03:41:08;13.80;;;10.70;;
7193;SDS011;3638;48.820;9.244;2023-06-22T03:43:36;13.20;;;11.10;;
7193;SDS011;3638;48.820;9.244;2023-06-22T03:46:03;11.57;;;9.93;;
7193;SDS011;3638;48.820;9.244;2023-06-22T03:48:30;15.45;;;10.57;;
7193;SDS011;3638;48.820;9.244;2023-06-22T03:50:58;14.80;;;11.35;;
7193;SDS011;3638;48.820;9.244;2023-06-22T03:53:25;23.10;;;11.70;;
7193;SDS011;3638;48.820;9.244;2023-06-22T03:55:53;15.38;;;10.95;;
7193;SDS011;3638;48.820;9.244;2023-06-22T03:58:20;14.45;;;12.15;;
7193;SDS011;3638;48.820;9.244;2023-06-22T04:00:49;13.00;;;10.70;;
7193;SDS011;3638;48.820;9.244;2023-06-22T04:03:18;15.25;;;12.27;;
7193;SDS011;3638;48.820;9.244;2023-06-22T04:05:46;17.08;;;12.23;;
7193;SDS011;3638;48.820;9.244;2023-06-22T04:08:13;15.88;;;12.70;;
7193;SDS011;3638;48.820;9.244;2023-06-22T04:10:40;13.45;;;12.02;;
7193;SDS011;3638;48.820;9.244;2023-06-22T04:13:07;16.48;;;11.07;;
7193;SDS011;3638;48.820;9.244;2023-06-22T04:15:34;18.08;;;12.00;;
7193;SDS011;3638;48.820;9.244;2023-06-22T04:18:02;13.98;;;11.43;;
7193;SDS011;3638;48.820;9.244;2023-06-22T04:20:30;15.35;;;11.23;;
7193;SDS011;3638;48.820;9.244;2023-06-22T04:22:57;12.75;;;10.75;;
7193;SDS011;3638;48.820;9.244;2023-06-22T04:25:24;18.05;;;12.18;;
7193;SDS011;3638;48.820;9.244;2023-06-22T04:27:51;14.20;;;11.75;;
7193;SDS011;3638;48.820;9.244;2023-06-22T04:30:18;11.85;;;9.88;;
7193;SDS011;3638;48.820;9.244;2023-06-22T04:32:45;14.13;;;11.38;;
7193;SDS011;3638;48.820;9.244;2023-06-22T04:35:22;15.98;;;11.52;;
7193;SDS011;3638;48.820;9.244;2023-06-22T04:37:49;16.70;;;11.70;;
7193;SDS011;3638;48.820;9.244;2023-06-22T04:40:20;15.10;;;10.30;;
7193;SDS011;3638;48.820;9.244;2023-06-22T04:42:47;15.70;;;10.98;;
7193;SDS011;3638;48.820;9.244;2023-06-22T04:45:18;14.88;;;11.23;;
7193;SDS011;3638;48.820;9.244;2023-06-22T04:47:46;15.80;;;11.48;;
7193;SDS011;3638;48.820;9.244;2023-06-22T04:50:13;15.63;;;11.15;;
7193;SDS011;3638;48.820;9.244;2023-06-22T04:52:42;14.45;;;9.90;;
7193;SDS011;3638;48.820;9.244;2023-06-22T04:55:08;14.77;;;11.27;;
7193;SDS011;3638;48.820;9.244;2023-06-22T04:57:35;12.45;;;11.18;;
7193;SDS011;3638;48.820;9.244;2023-06-22T05:00:05;15.00;;;11.10;;
7193;SDS011;3638;48.820;9.244;2023-06-22T05:02:37;16.55;;;10.77;;
7193;SDS011;3638;48.820;9.244;2023-06-22T05:05:04;11.25;;;9.73;;
7193;SDS011;3638;48.820;9.244;2023-06-22T05:07:32;12.35;;;10.35;;
7193;SDS011;3638;48.820;9.244;2023-06-22T05:10:01;16.52;;;10.40;;
7193;SDS011;3638;48.820;9.244;2023-06-22T05:12:29;13.80;;;9.40;;
7193;SDS011;3638;48.820;9.244;2023-06-22T05:14:56;11.45;;;9.80;;
7193;SDS011;3638;48.820;9.244;2023-06-22T05:17:23;11.15;;;9.02;;
7193;SDS011;3638;48.820;9.244;2023-06-22T05:19:51;14.02;;;9.32;;
7193;SDS011;3638;48.820;9.244;2023-06-22T05:22:18;11.18;;;9.35;;
7193;SDS011;3638;48.820;9.244;2023-06-22T05:24:45;13.98;;;10.32;;
7193;SDS011;3638;48.820;9.244;2023-06-22T05:27:13;12.38;;;8.98;;
7193;SDS011;3638;48.820;9.244;2023-06-22T05:29:40;10.82;;;9.13;;
7193;SDS011;3638;48.820;9.244;2023-06-22T05:32:08;13.93;;;9.55;;
7193;SDS011;3638;48.820;9.244;2023-06-22T05:34:36;12.60;;;8.57;;
7193;SDS011;3638;48.820;9.244;2023-06-22T05:37:03;10.13;;;8.13;;
7193;SDS011;3638;48.820;9.244;2023-06-22T05:39:31;11.52;;;7.55;;
7193;SDS011;3638;48.820;9.244;2023-06-22T05:41:58;9.25;;;7.55;;
7193;SDS011;3638;48.820;9.244;2023-06-22T05:44:26;10.05;;;7.80;;
7193;SDS011;3638;48.820;9.244;2023-06-22T05:46:53;10.65;;;7.95;;
7193;SDS011;3638;48.820;9.244;2023-06-22T05:49:20;10.20;;;8.18;;
7193;SDS011;3638;48.820;9.244;2023-06-22T05:51:47;8.82;;;7.78;;
7193;SDS011;3638;48.820;9.244;2023-06-22T05:54:17;8.55;;;7.13;;
7193;SDS011;3638;48.820;9.244;2023-06-22T05:56:44;9.85;;;8.75;;
7193;SDS011;3638;48.820;9.244;2023-06-22T05:59:11;12.18;;;8.20;;
7193;SDS011;3638;48.820;9.244;2023-06-22T06:01:39;11.40;;;7.93;;
7193;SDS011;3638;48.820;9.244;2023-06-22T06:04:06;10.02;;;7.38;;
7193;SDS011;3638;48.820;9.244;2023-06-22T06:06:34;11.10;;;8.07;;
7193;SDS011;3638;48.820;9.244;2023-06-22T06:09:02;10.05;;;7.43;;
7193;SDS011;3638;48.820;9.244;2023-06-22T06:11:29;9.65;;;8.23;;
7193;SDS011;3638;48.820;9.244;2023-06-22T06:13:57;9.93;;;7.88;;
7193;SDS011;3638;48.820;9.244;2023-06-22T06:16:23;10.05;;;8.23;;
7193;SDS011;3638;48.820;9.244;2023-06-22T06:18:52;8.88;;;7.78;;
7193;SDS011;3638;48.820;9.244;2023-06-22T06:21:20;10.70;;;7.95;;
7193;SDS011;3638;48.820;9.244;2023-06-22T06:23:47;9.88;;;7.90;;
7193;SDS011;3638;48.820;9.244;2023-06-22T06:26:15;10.43;;;7.90;;
7193;SDS011;3638;48.820;9.244;2023-06-22T06:28:42;12.30;;;8.60;;
7193;SDS011;3638;48.820;9.244;2023-06-22T06:31:09;10.18;;;8.00;;
7193;SDS011;3638;48.820;9.244;2023-06-22T06:33:37;10.23;;;8.00;;
7193;SDS011;3638;48.820;9.244;2023-06-22T06:36:06;9.98;;;7.72;;
7193;SDS011;3638;48.820;9.244;2023-06-22T06:38:33;8.60;;;6.80;;
7193;SDS011;3638;48.820;9.244;2023-06-22T06:41:00;10.45;;;7.00;;
7193;SDS011;3638;48.820;9.244;2023-06-22T06:43:27;8.50;;;6.93;;
7193;SDS011;3638;48.820;9.244;2023-06-22T06:45:55;11.68;;;7.97;;
7193;SDS011;3638;48.820;9.244;2023-06-22T06:48:22;9.27;;;7.57;;
7193;SDS011;3638;48.820;9.244;2023-06-22T06:50:49;7.68;;;6.63;;
7193;SDS011;3638;48.820;9.244;2023-06-22T06:53:18;12.00;;;7.43;;
7193;SDS011;3638;48.820;9.244;2023-06-22T06:55:45;8.57;;;6.70;;
7193;SDS011;3638;48.820;9.244;2023-06-22T06:58:13;9.63;;;6.80;;
7193;SDS011;3638;48.820;9.244;2023-06-22T07:00:41;9.48;;;6.70;;
7193;SDS011;3638;48.820;9.244;2023-06-22T07:03:09;10.90;;;6.53;;
7193;SDS011;3638;48.820;9.244;2023-06-22T07:05:36;13.80;;;6.82;;
7193;SDS011;3638;48.820;9.244;2023-06-22T07:08:04;7.78;;;5.95;;
7193;SDS011;3638;48.820;9.244;2023-06-22T07:10:32;9.48;;;6.93;;
7193;SDS011;3638;48.820;9.244;2023-06-22T07:13:00;9.57;;;6.40;;
7193;SDS011;3638;48.820;9.244;2023-06-22T07:15:27;7.43;;;5.97;;
7193;SDS011;3638;48.820;9.244;2023-06-22T07:17:54;7.88;;;6.45;;
7193;SDS011;3638;48.820;9.244;2023-06-22T07:20:21;8.23;;;6.07;;
7193;SDS011;3638;48.820;9.244;2023-06-22T07:22:49;9.75;;;6.07;;
7193;SDS011;3638;48.820;9.244;2023-06-22T07:25:17;9.32;;;6.40;;
7193;SDS011;3638;48.820;9.244;2023-06-22T07:27:46;7.57;;;6.05;;
7193;SDS011;3638;48.820;9.244;2023-06-22T07:30:22;7.05;;;6.20;;
7193;SDS011;3638;48.820;9.244;2023-06-22T07:32:50;8.48;;;5.97;;
7193;SDS011;3638;48.820;9.244;2023-06-22T07:35:16;8.50;;;5.80;;
7193;SDS011;3638;48.820;9.244;2023-06-22T07:37:44;11.20;;;5.68;;
7193;SDS011;3638;48.820;9.244;2023-06-22T07:40:11;8.02;;;5.93;;
7193;SDS011;3638;48.820;9.244;2023-06-22T07:42:39;6.55;;;5.20;;
7193;SDS011;3638;48.820;9.244;2023-06-22T07:45:07;8.30;;;5.25;;
7193;SDS011;3638;48.820;9.244;2023-06-22T07:47:35;5.50;;;4.68;;
7193;SDS011;3638;48.820;9.244;2023-06-22T07:50:02;8.15;;;5.38;;
7193;SDS011;3638;48.820;9.244;2023-06-22T07:52:30;7.70;;;5.10;;
7193;SDS011;3638;48.820;9.244;2023-06-22T07:54:58;7.32;;;5.07;;
7193;SDS011;3638;48.820;9.244;2023-06-22T07:57:25;8.13;;;5.55;;
7193;SDS011;3638;48.820;9.244;2023-06-22T07:59:58;9.32;;;5.20;;
7193;SDS011;3638;48.820;9.244;2023-06-22T08:02:26;7.38;;;4.97;;
7193;SDS011;3638;48.820;9.244;2023-06-22T08:04:53;7.78;;;5.25;;
7193;SDS011;3638;48.820;9.244;2023-06-22T08:07:20;5.95;;;4.45;;
7193;SDS011;3638;48.820;9.244;2023-06-22T08:09:48;7.45;;;5.38;;
7193;SDS011;3638;48.820;9.244;2023-06-22T08:12:15;9.25;;;5.40;;
7193;SDS011;3638;48.820;9.244;2023-06-22T08:14:42;8.02;;;5.05;;
7193;SDS011;3638;48.820;9.244;2023-06-22T08:17:11;9.23;;;4.97;;
7193;SDS011;3638;48.820;9.244;2023-06-22T08:19:40;9.13;;;5.18;;
7193;SDS011;3638;48.820;9.244;2023-06-22T08:22:07;9.18;;;4.95;;
7193;SDS011;3638;48.820;9.244;2023-06-22T08:24:34;6.45;;;4.80;;
7193;SDS011;3638;48.820;9.244;2023-06-22T08:27:01;7.72;;;5.07;;
7193;SDS011;3638;48.820;9.244;2023-06-22T08:29:29;7.75;;;5.10;;
7193;SDS011;3638;48.820;9.244;2023-06-22T08:31:56;7.65;;;4.78;;
7193;SDS011;3638;48.820;9.244;2023-06-22T08:34:23;8.57;;;4.85;;
7193;SDS011;3638;48.820;9.244;2023-06-22T08:36:54;8.82;;;4.80;;
7193;SDS011;3638;48.820;9.244;2023-06-22T08:39:21;7.95;;;5.30;;
7193;SDS011;3638;48.820;9.244;2023-06-22T08:41:48;8.32;;;5.30;;
7193;SDS011;3638;48.820;9.244;2023-06-22T08:44:17;6.68;;;4.88;;
7193;SDS011;3638;48.820;9.244;2023-06-22T08:46:45;8.43;;;5.30;;
7193;SDS011;3638;48.820;9.244;2023-06-22T08:49:12;9.15;;;5.13;;
7193;SDS011;3638;48.820;9.244;2023-06-22T08:51:39;6.72;;;5.00;;
7193;SDS011;3638;48.820;9.244;2023-06-22T08:54:07;6.68;;;5.07;;
7193;SDS011;3638;48.820;9.244;2023-06-22T08:56:35;8.63;;;4.95;;
7193;SDS011;3638;48.820;9.244;2023-06-22T08:59:02;7.20;;;5.00;;
7193;SDS011;3638;48.820;9.244;2023-06-22T09:01:29;6.47;;;4.88;;
7193;SDS011;3638;48.820;9.244;2023-06-22T09:03:55;9.63;;;5.25;;
7193;SDS011;3638;48.820;9.244;2023-06-22T09:06:23;9.30;;;4.80;;
7193;SDS011;3638;48.820;9.244;2023-06-22T09:08:50;8.52;;;5.30;;
7193;SDS011;3638;48.820;9.244;2023-06-22T09:11:19;8.02;;;5.03;;
7193;SDS011;3638;48.820;9.244;2023-06-22T09:13:46;8.88;;;5.25;;
7193;SDS011;3638;48.820;9.244;2023-06-22T09:16:12;11.05;;;5.70;;
7193;SDS011;3638;48.820;9.244;2023-06-22T09:18:39;9.95;;;5.28;;
7193;SDS011;3638;48.820;9.244;2023-06-22T09:21:06;8.45;;;5.55;;
7193;SDS011;3638;48.820;9.244;2023-06-22T09:23:33;9.02;;;5.72;;
7193;SDS011;3638;48.820;9.244;2023-06-22T09:26:00;10.70;;;5.70;;
7193;SDS011;3638;48.820;9.244;2023-06-22T09:28:32;9.65;;;5.43;;
7193;SDS011;3638;48.820;9.244;2023-06-22T09:30:59;8.85;;;5.50;;
7193;SDS011;3638;48.820;9.244;2023-06-22T09:33:26;10.25;;;5.10;;
7193;SDS011;3638;48.820;9.244;2023-06-22T09:35:53;10.32;;;5.20;;
7193;SDS011;3638;48.820;9.244;2023-06-22T09:38:21;12.57;;;5.28;;
7193;SDS011;3638;48.820;9.244;2023-06-22T09:40:48;7.63;;;5.18;;
7193;SDS011;3638;48.820;9.244;2023-06-22T09:43:15;10.77;;;5.82;;
7193;SDS011;3638;48.820;9.244;2023-06-22T09:45:44;8.98;;;5.53;;
7193;SDS011;3638;48.820;9.244;2023-06-22T09:48:11;9.50;;;5.30;;
7193;SDS011;3638;48.820;9.244;2023-06-22T09:50:38;12.05;;;5.43;;
7193;SDS011;3638;48.820;9.244;2023-06-22T09:53:04;11.70;;;5.53;;
7193;SDS011;3638;48.820;9.244;2023-06-22T09:55:31;10.38;;;5.57;;
7193;SDS011;3638;48.820;9.244;2023-06-22T09:57:58;9.57;;;5.82;;
7193;SDS011;3638;48.820;9.244;2023-06-22T10:00:25;13.18;;;5.80;;
7193;SDS011;3638;48.820;9.244;2023-06-22T10:02:54;7.60;;;5.50;;
7193;SDS011;3638;48.820;9.244;2023-06-22T10:05:21;7.53;;;5.30;;
7193;SDS011;3638;48.820;9.244;2023-06-22T10:07:48;10.23;;;5.85;;
7193;SDS011;3638;48.820;9.244;2023-06-22T10:10:15;8.60;;;5.53;;
7193;SDS011;3638;48.820;9.244;2023-06-22T10:12:42;13.05;;;5.60;;
7193;SDS011;3638;48.820;9.244;2023-06-22T10:15:11;12.35;;;6.03;;
7193;SDS011;3638;48.820;9.244;2023-06-22T10:17:39;11.68;;;5.95;;
7193;SDS011;3638;48.820;9.244;2023-06-22T10:20:08;9.00;;;5.40;;
7193;SDS011;3638;48.820;9.244;2023-06-22T10:22:37;8.02;;;5.88;;
7193;SDS011;3638;48.820;9.244;2023-06-22T10:25:05;10.57;;;5.95;;
7193;SDS011;3638;48.820;9.244;2023-06-22T10:27:33;9.15;;;5.55;;
7193;SDS011;3638;48.820;9.244;2023-06-22T10:30:00;10.23;;;5.97;;
7193;SDS011;3638;48.820;9.244;2023-06-22T10:32:27;8.32;;;5.38;;
7193;SDS011;3638;48.820;9.244;2023-06-22T10:34:54;8.75;;;5.40;;
7193;SDS011;3638;48.820;9.244;2023-06-22T10:37:23;12.50;;;6.07;;
7193;SDS011;3638;48.820;9.244;2023-06-22T10:39:49;10.88;;;5.80;;
7193;SDS011;3638;48.820;9.244;2023-06-22T10:42:16;10.73;;;5.55;;
7193;SDS011;3638;48.820;9.244;2023-06-22T10:44:43;10.82;;;5.75;;
7193;SDS011;3638;48.820;9.244;2023-06-22T10:47:10;11.63;;;5.65;;
7193;SDS011;3638;48.820;9.244;2023-06-22T10:49:37;8.90;;;5.72;;
7193;SDS011;3638;48.820;9.244;2023-06-22T10:52:05;11.15;;;5.70;;
7193;SDS011;3638;48.820;9.244;2023-06-22T10:54:34;9.90;;;5.93;;
7193;SDS011;3638;48.820;9.244;2023-06-22T10:57:04;13.20;;;5.95;;
7193;SDS011;3638;48.820;9.244;2023-06-22T10:59:32;8.48;;;5.70;;
7193;SDS011;3638;48.820;9.244;2023-06-22T11:01:59;9.25;;;5.70;;
7193;SDS011;3638;48.820;9.244;2023-06-22T11:04:25;9.23;;;5.70;;
7193;SDS011;3638;48.820;9.244;2023-06-22T11:06:53;9.02;;;5.70;;
7193;SDS011;3638;48.820;9.244;2023-06-22T11:09:21;7.53;;;5.70;;
7193;SDS011;3638;48.820;9.244;2023-06-22T11:11:50;10.52;;;5.57;;
7193;SDS011;3638;48.820;9.244;2023-06-22T11:14:18;10.48;;;5.10;;
7193;SDS011;3638;48.820;9.244;2023-06-22T11:16:45;12.38;;;5.80;;
7193;SDS011;3638;48.820;9.244;2023-06-22T11:19:12;11.10;;;5.50;;
7193;SDS011;3638;48.820;9.244;2023-06-22T11:21:39;12.88;;;5.00;;
7193;SDS011;3638;48.820;9.244;2023-06-22T11:24:06;11.15;;;5.50;;
7193;SDS011;3638;48.820;9.244;2023-06-22T11:26:33;11.65;;;5.38;;
7193;SDS011;3638;48.820;9.244;2023-06-22T11:29:02;9.20;;;5.28;;
7193;SDS011;3638;48.820;9.244;2023-06-22T11:31:30;9.23;;;5.18;;
7193;SDS011;3638;48.820;9.244;2023-06-22T11:33:57;12.27;;;5.43;;
7193;SDS011;3638;48.820;9.244;2023-06-22T11:36:24;12.50;;;5.95;;
7193;SDS011;3638;48.820;9.244;2023-06-22T11:38:52;10.57;;;5.70;;
7193;SDS011;3638;48.820;9.244;2023-06-22T11:41:19;10.68;;;5.82;;
7193;SDS011;3638;48.820;9.244;2023-06-22T11:43:46;10.23;;;5.78;;
7193;SDS011;3638;48.820;9.244;2023-06-22T11:46:14;13.10;;;6.00;;
7193;SDS011;3638;48.820;9.244;2023-06-22T11:48:41;10.98;;;5.80;;
7193;SDS011;3638;48.820;9.244;2023-06-22T11:51:08;11.52;;;5.90;;
7193;SDS011;3638;48.820;9.244;2023-06-22T11:53:35;8.70;;;5.85;;
7193;SDS011;3638;48.820;9.244;2023-06-22T11:56:01;9.88;;;5.90;;
7193;SDS011;3638;48.820;9.244;2023-06-22T11:58:28;8.88;;;5.63;;
7193;SDS011;3638;48.820;9.244;2023-06-22T12:00:55;10.73;;;5.85;;
7193;SDS011;3638;48.820;9.244;2023-06-22T12:03:23;12.27;;;5.95;;
7193;SDS011;3638;48.820;9.244;2023-06-22T12:05:50;16.30;;;5.90;;
7193;SDS011;3638;48.820;9.244;2023-06-22T12:08:18;8.75;;;5.20;;
7193;SDS011;3638;48.820;9.244;2023-06-22T12:10:45;12.98;;;5.55;;
7193;SDS011;3638;48.820;9.244;2023-06-22T12:13:11;19.25;;;6.78;;
7193;SDS011;3638;48.820;9.244;2023-06-22T12:15:38;10.70;;;5.93;;
7193;SDS011;3638;48.820;9.244;2023-06-22T12:18:05;14.23;;;6.10;;
7193;SDS011;3638;48.820;9.244;2023-06-22T12:20:34;11.80;;;5.95;;
7193;SDS011;3638;48.820;9.244;2023-06-22T12:23:02;9.35;;;5.68;;
7193;SDS011;3638;48.820;9.244;2023-06-22T12:25:29;11.30;;;6.68;;
7193;SDS011;3638;48.820;9.244;2023-06-22T12:27:55;14.43;;;9.27;;
7193;SDS011;3638;48.820;9.244;2023-06-22T12:30:22;11.95;;;6.85;;
7193;SDS011;3638;48.820;9.244;2023-06-22T12:32:49;10.45;;;6.60;;
7193;SDS011;3638;48.820;9.244;2023-06-22T12:35:16;15.45;;;6.85;;
7193;SDS011;3638;48.820;9.244;2023-06-22T12:37:44;12.23;;;5.85;;
7193;SDS011;3638;48.820;9.244;2023-06-22T12:40:11;15.27;;;6.70;;
7193;SDS011;3638;48.820;9.244;2023-06-22T12:42:39;11.82;;;6.32;;
7193;SDS011;3638;48.820;9.244;2023-06-22T12:45:07;12.98;;;6.10;;
7193;SDS011;3638;48.820;9.244;2023-06-22T12:47:35;10.00;;;6.30;;
7193;SDS011;3638;48.820;9.244;2023-06-22T12:50:02;14.68;;;7.35;;
7193;SDS011;3638;48.820;9.244;2023-06-22T12:52:30;10.15;;;6.38;;
7193;SDS011;3638;48.820;9.244;2023-06-22T12:54:58;13.90;;;6.22;;
7193;SDS011;3638;48.820;9.244;2023-06-22T12:57:25;15.18;;;6.47;;
7193;SDS011;3638;48.820;9.244;2023-06-22T12:59:52;12.82;;;7.65;;
7193;SDS011;3638;48.820;9.244;2023-06-22T13:02:19;22.02;;;11.68;;
7193;SDS011;3638;48.820;9.244;2023-06-22T13:04:46;21.77;;;8.90;;
7193;SDS011;3638;48.820;9.244;2023-06-22T13:07:13;19.13;;;9.50;;
7193;SDS011;3638;48.820;9.244;2023-06-22T13:09:40;13.30;;;7.88;;
7193;SDS011;3638;48.820;9.244;2023-06-22T13:12:08;13.63;;;6.80;;
7193;SDS011;3638;48.820;9.244;2023-06-22T13:14:35;11.40;;;6.85;;
7193;SDS011;3638;48.820;9.244;2023-06-22T13:17:02;22.15;;;13.10;;
7193;SDS011;3638;48.820;9.244;2023-06-22T13:19:29;15.52;;;10.30;;
7193;SDS011;3638;48.820;9.244;2023-06-22T13:21:57;15.82;;;7.93;;
7193;SDS011;3638;48.820;9.244;2023-06-22T13:24:25;11.07;;;6.50;;
7193;SDS011;3638;48.820;9.244;2023-06-22T13:26:52;9.95;;;6.00;;
7193;SDS011;3638;48.820;9.244;2023-06-22T13:29:20;13.65;;;6.60;;
7193;SDS011;3638;48.820;9.244;2023-06-22T13:31:47;15.43;;;10.02;;
7193;SDS011;3638;48.820;9.244;2023-06-22T13:34:13;12.40;;;6.47;;
7193;SDS011;3638;48.820;9.244;2023-06-22T13:36:40;16.20;;;6.57;;
7193;SDS011;3638;48.820;9.244;2023-06-22T13:39:07;10.10;;;5.28;;
7193;SDS011;3638;48.820;9.244;2023-06-22T13:41:34;10.70;;;5.75;;
7193;SDS011;3638;48.820;9.244;2023-06-22T13:44:01;10.57;;;5.22;;
7193;SDS011;3638;48.820;9.244;2023-06-22T13:46:30;10.32;;;5.55;;
7193;SDS011;3638;48.820;9.244;2023-06-22T13:48:56;14.38;;;6.03;;
7193;SDS011;3638;48.820;9.244;2023-06-22T13:51:23;15.38;;;5.93;;
7193;SDS011;3638;48.820;9.244;2023-06-22T13:53:50;14.85;;;8.27;;
7193;SDS011;3638;48.820;9.244;2023-06-22T13:56:17;15.07;;;8.25;;
7193;SDS011;3638;48.820;9.244;2023-06-22T13:58:44;11.57;;;6.97;;
7193;SDS011;3638;48.820;9.244;2023-06-22T14:01:11;14.15;;;6.22;;
7193;SDS011;3638;48.820;9.244;2023-06-22T14:03:39;14.95;;;6.25;;
7193;SDS011;3638;48.820;9.244;2023-06-22T14:06:06;12.45;;;5.82;;
7193;SDS011;3638;48.820;9.244;2023-06-22T14:08:34;12.98;;;6.05;;
7193;SDS011;3638;48.820;9.244;2023-06-22T14:11:02;8.70;;;5.63;;
7193;SDS011;3638;48.820;9.244;2023-06-22T14:13:29;13.88;;;6.45;;
7193;SDS011;3638;48.820;9.244;2023-06-22T14:15:56;13.52;;;6.07;;
7193;SDS011;3638;48.820;9.244;2023-06-22T14:18:23;12.15;;;6.30;;
7193;SDS011;3638;48.820;9.244;2023-06-22T14:20:51;12.30;;;5.65;;
7193;SDS011;3638;48.820;9.244;2023-06-22T14:23:18;15.93;;;6.55;;
7193;SDS011;3638;48.820;9.244;2023-06-22T14:25:44;13.27;;;6.43;;
7193;SDS011;3638;48.820;9.244;2023-06-22T14:28:11;12.23;;;5.45;;
7193;SDS011;3638;48.820;9.244;2023-06-22T14:30:38;11.00;;;5.25;;
7193;SDS011;3638;48.820;9.244;2023-06-22T14:33:05;13.57;;;5.38;;
7193;SDS011;3638;48.820;9.244;2023-06-22T14:35:32;12.52;;;5.50;;
7193;SDS011;3638;48.820;9.244;2023-06-22T14:38:00;11.73;;;5.50;;
7193;SDS011;3638;48.820;9.244;2023-06-22T14:40:27;13.85;;;5.60;;
7193;SDS011;3638;48.820;9.244;2023-06-22T14:42:54;14.77;;;5.63;;
7193;SDS011;3638;48.820;9.244;2023-06-22T14:45:21;13.77;;;4.85;;
7193;SDS011;3638;48.820;9.244;2023-06-22T14:47:48;12.65;;;5.22;;
7193;SDS011;3638;48.820;9.244;2023-06-22T14:50:15;12.27;;;5.65;;
7193;SDS011;3638;48.820;9.244;2023-06-22T14:52:43;13.48;;;5.50;;
7193;SDS011;3638;48.820;9.244;2023-06-22T14:55:12;9.07;;;4.70;;
7193;SDS011;3638;48.820;9.244;2023-06-22T14:57:38;13.25;;;5.57;;
7193;SDS011;3638;48.820;9.244;2023-06-22T15:00:06;11.05;;;5.32;;
7193;SDS011;3638;48.820;9.244;2023-06-22T15:02:34;9.68;;;5.07;;
7193;SDS011;3638;48.820;9.244;2023-06-22T15:05:01;9.77;;;4.88;;
7193;SDS011;3638;48.820;9.244;2023-06-22T15:07:27;14.38;;;5.32;;
7193;SDS011;3638;48.820;9.244;2023-06-22T15:09:54;10.30;;;5.10;;